createdAt,value
2023-04-16T00:00:00.187Z,407.00
2023-04-16T00:01:00.127Z,404.00
2023-04-16T00:02:00.263Z,404.00
2023-04-16T00:03:00.318Z,404.00
2023-04-16T00:04:00.545Z,406.00
2023-04-16T00:05:00.298Z,405.00
2023-04-16T00:06:00.321Z,404.00
2023-04-16T00:07:00.224Z,405.00
2023-04-16T00:08:00.269Z,404.00
2023-04-16T00:09:00.274Z,404.00
2023-04-16T00:10:00.347Z,405.00
2023-04-16T00:11:00.340Z,404.00
2023-04-16T00:12:00.346Z,404.00
2023-04-16T00:13:00.348Z,405.00
2023-04-16T00:14:00.346Z,404.00
2023-04-16T00:15:00.341Z,405.00
2023-04-16T00:16:00.335Z,406.00
2023-04-16T00:17:00.404Z,406.00
2023-04-16T00:18:00.361Z,407.00
2023-04-16T00:19:00.353Z,408.00
2023-04-16T00:20:00.358Z,407.00
2023-04-16T00:21:00.366Z,406.00
2023-04-16T00:22:00.373Z,407.00
2023-04-16T00:23:00.379Z,407.00
2023-04-16T00:24:00.455Z,407.00
2023-04-16T00:25:00.383Z,407.00
2023-04-16T00:26:00.423Z,407.00
2023-04-16T00:27:00.410Z,407.00
2023-04-16T00:28:00.420Z,407.00
2023-04-16T00:29:00.486Z,408.00
2023-04-16T00:30:00.433Z,407.00
2023-04-16T00:31:00.402Z,409.00
2023-04-16T00:32:00.368Z,410.00
2023-04-16T00:33:00.454Z,411.00
2023-04-16T00:34:00.348Z,411.00
2023-04-16T00:35:00.398Z,410.00
2023-04-16T00:36:00.372Z,410.00
2023-04-16T00:37:00.404Z,411.00
2023-04-16T00:38:00.425Z,412.00
2023-04-16T00:39:00.378Z,412.00
2023-04-16T00:40:00.389Z,412.00
2023-04-16T00:41:00.347Z,411.00
2023-04-16T00:42:00.339Z,413.00
2023-04-16T00:43:00.353Z,412.00
2023-04-16T00:44:00.519Z,411.00
2023-04-16T00:45:00.317Z,411.00
2023-04-16T00:46:00.350Z,408.00
2023-04-16T00:47:00.338Z,409.00
2023-04-16T00:48:00.755Z,409.00
2023-04-16T00:49:00.307Z,410.00
2023-04-16T00:50:00.275Z,413.00
2023-04-16T00:51:00.289Z,413.00
2023-04-16T00:52:00.307Z,413.00
2023-04-16T00:53:00.384Z,412.00
2023-04-16T00:54:00.267Z,412.00
2023-04-16T00:55:00.308Z,414.00
2023-04-16T00:56:00.293Z,414.00
2023-04-16T00:57:00.289Z,413.00
2023-04-16T00:58:00.259Z,413.00
2023-04-16T00:59:00.300Z,412.00
2023-04-16T01:00:00.260Z,412.00
2023-04-16T01:01:00.256Z,411.00
2023-04-16T01:02:00.398Z,411.00
2023-04-16T01:03:00.437Z,411.00
2023-04-16T01:04:00.390Z,410.00
2023-04-16T01:05:00.296Z,412.00
2023-04-16T01:06:00.296Z,410.00
2023-04-16T01:07:00.270Z,408.00
2023-04-16T01:08:00.386Z,410.00
2023-04-16T01:09:00.275Z,409.00
2023-04-16T01:10:00.303Z,408.00
2023-04-16T01:11:00.324Z,408.00
2023-04-16T01:12:00.294Z,407.00
2023-04-16T01:13:00.301Z,409.00
2023-04-16T01:14:00.310Z,410.00
2023-04-16T01:15:00.359Z,410.00
2023-04-16T01:16:00.361Z,411.00
2023-04-16T01:17:00.333Z,410.00
2023-04-16T01:18:00.408Z,412.00
2023-04-16T01:19:00.301Z,412.00
2023-04-16T01:20:00.359Z,411.00
2023-04-16T01:21:00.366Z,409.00
2023-04-16T01:22:00.367Z,407.00
2023-04-16T01:23:00.886Z,406.00
2023-04-16T01:24:00.382Z,404.00
2023-04-16T01:25:00.389Z,402.00
2023-04-16T01:26:00.356Z,401.00
2023-04-16T01:27:00.431Z,403.00
2023-04-16T01:28:00.418Z,404.00
2023-04-16T01:29:00.383Z,405.00
2023-04-16T01:30:00.373Z,404.00
2023-04-16T01:31:00.454Z,403.00
2023-04-16T01:32:00.442Z,403.00
2023-04-16T01:33:00.505Z,405.00
2023-04-16T01:34:00.480Z,404.00
2023-04-16T01:35:00.523Z,404.00
2023-04-16T01:36:00.419Z,405.00
2023-04-16T01:37:00.422Z,406.00
2023-04-16T01:38:00.407Z,407.00
2023-04-16T01:39:00.406Z,408.00
2023-04-16T01:40:00.461Z,410.00
2023-04-16T01:41:00.421Z,412.00
2023-04-16T01:42:00.438Z,416.00
2023-04-16T01:43:00.427Z,414.00
2023-04-16T01:44:00.444Z,411.00
2023-04-16T01:45:00.447Z,413.00
2023-04-16T01:46:00.455Z,413.00
2023-04-16T01:47:00.571Z,413.00
2023-04-16T01:48:00.555Z,413.00
2023-04-16T01:49:00.517Z,412.00
2023-04-16T01:50:00.502Z,412.00
2023-04-16T01:51:00.489Z,411.00
2023-04-16T01:52:00.543Z,412.00
2023-04-16T01:53:00.511Z,412.00
2023-04-16T01:54:00.562Z,411.00
2023-04-16T01:55:00.596Z,411.00
2023-04-16T01:56:00.638Z,412.00
2023-04-16T01:57:00.606Z,414.00
2023-04-16T01:58:00.553Z,414.00
2023-04-16T01:59:00.633Z,415.00
2023-04-16T02:00:00.654Z,413.00
2023-04-16T02:01:00.741Z,412.00
2023-04-16T02:02:00.767Z,410.00
2023-04-16T02:03:00.835Z,410.00
2023-04-16T02:04:00.829Z,410.00
2023-04-16T02:05:00.733Z,413.00
2023-04-16T02:06:00.706Z,412.00
2023-04-16T02:07:00.708Z,412.00
2023-04-16T02:08:00.704Z,412.00
2023-04-16T02:09:00.732Z,413.00
2023-04-16T02:10:00.752Z,412.00
2023-04-16T02:11:00.798Z,411.00
2023-04-16T02:12:00.735Z,409.00
2023-04-16T02:13:00.822Z,409.00
2023-04-16T02:14:00.780Z,409.00
2023-04-16T02:15:00.862Z,411.00
2023-04-16T02:16:00.809Z,413.00
2023-04-16T02:17:00.788Z,414.00
2023-04-16T02:18:00.906Z,411.00
2023-04-16T02:19:00.849Z,412.00
2023-04-16T02:20:00.848Z,413.00
2023-04-16T02:21:00.908Z,415.00
2023-04-16T02:22:00.890Z,415.00
2023-04-16T02:23:00.899Z,418.00
2023-04-16T02:24:00.909Z,417.00
2023-04-16T02:25:00.940Z,416.00
2023-04-16T02:26:01.041Z,414.00
2023-04-16T02:27:00.952Z,414.00
2023-04-16T02:28:01.027Z,415.00
2023-04-16T02:29:01.022Z,414.00
2023-04-16T02:30:01.056Z,413.00
2023-04-16T02:31:01.060Z,411.00
2023-04-16T02:32:01.158Z,411.00
2023-04-16T02:33:01.167Z,411.00
2023-04-16T02:34:01.103Z,412.00
2023-04-16T02:35:01.164Z,413.00
2023-04-16T02:36:01.132Z,414.00
2023-04-16T02:37:01.175Z,415.00
2023-04-16T02:38:01.195Z,414.00
2023-04-16T02:39:01.246Z,415.00
2023-04-16T02:40:01.261Z,415.00
2023-04-16T02:41:01.230Z,416.00
2023-04-16T02:42:01.303Z,416.00
2023-04-16T02:43:01.279Z,417.00
2023-04-16T02:44:01.314Z,418.00
2023-04-16T02:45:01.336Z,417.00
2023-04-16T02:46:01.442Z,416.00
2023-04-16T02:47:01.487Z,413.00
2023-04-16T02:48:01.444Z,412.00
2023-04-16T02:49:01.469Z,412.00
2023-04-16T02:50:01.471Z,413.00
2023-04-16T02:51:01.509Z,414.00
2023-04-16T02:52:01.478Z,413.00
2023-04-16T02:53:01.597Z,413.00
2023-04-16T02:54:01.579Z,414.00
2023-04-16T02:55:01.552Z,413.00
2023-04-16T02:56:01.566Z,412.00
2023-04-16T02:57:01.611Z,414.00
2023-04-16T02:58:01.630Z,414.00
2023-04-16T02:59:01.670Z,413.00
2023-04-16T03:00:01.665Z,414.00
2023-04-16T03:01:01.834Z,414.00
2023-04-16T03:02:01.722Z,415.00
2023-04-16T03:03:01.886Z,417.00
2023-04-16T03:04:01.784Z,417.00
2023-04-16T03:05:01.731Z,417.00
2023-04-16T03:06:01.777Z,418.00
2023-04-16T03:07:01.933Z,417.00
2023-04-16T03:08:01.818Z,415.00
2023-04-16T03:09:01.834Z,414.00
2023-04-16T03:10:01.890Z,417.00
2023-04-16T03:11:01.859Z,417.00
2023-04-16T03:12:01.878Z,416.00
2023-04-16T03:13:02.008Z,416.00
2023-04-16T03:14:01.942Z,417.00
2023-04-16T03:15:01.944Z,416.00
2023-04-16T03:16:02.085Z,417.00
2023-04-16T03:17:01.984Z,413.00
2023-04-16T03:18:02.133Z,416.00
2023-04-16T03:19:02.071Z,413.00
2023-04-16T03:20:02.058Z,412.00
2023-04-16T03:21:02.076Z,411.00
2023-04-16T03:22:02.096Z,410.00
2023-04-16T03:23:02.106Z,411.00
2023-04-16T03:24:02.149Z,411.00
2023-04-16T03:25:02.152Z,412.00
2023-04-16T03:26:02.243Z,412.00
2023-04-16T03:27:02.183Z,412.00
2023-04-16T03:28:02.201Z,412.00
2023-04-16T03:29:02.246Z,413.00
2023-04-16T03:30:02.312Z,412.00
2023-04-16T03:31:02.349Z,412.00
2023-04-16T03:32:02.300Z,412.00
2023-04-16T03:33:02.367Z,411.00
2023-04-16T03:34:02.387Z,409.00
2023-04-16T03:35:02.382Z,409.00
2023-04-16T03:36:02.433Z,407.00
2023-04-16T03:37:02.458Z,407.00
2023-04-16T03:38:02.401Z,407.00
2023-04-16T03:39:02.450Z,409.00
2023-04-16T03:40:02.465Z,409.00
2023-04-16T03:41:02.459Z,409.00
2023-04-16T03:42:02.558Z,411.00
2023-04-16T03:43:02.509Z,410.00
2023-04-16T03:44:02.509Z,410.00
2023-04-16T03:45:02.568Z,410.00
2023-04-16T03:46:02.572Z,411.00
2023-04-16T03:47:02.624Z,411.00
2023-04-16T03:48:02.604Z,409.00
2023-04-16T03:49:02.619Z,409.00
2023-04-16T03:50:02.635Z,410.00
2023-04-16T03:51:02.658Z,410.00
2023-04-16T03:52:02.716Z,409.00
2023-04-16T03:53:02.726Z,409.00
2023-04-16T03:54:02.713Z,409.00
2023-04-16T03:55:02.782Z,409.00
2023-04-16T03:56:02.783Z,411.00
2023-04-16T03:57:02.790Z,412.00
2023-04-16T03:58:02.772Z,414.00
2023-04-16T03:59:02.799Z,416.00
2023-04-16T04:00:02.888Z,415.00
2023-04-16T04:01:02.884Z,412.00
2023-04-16T04:02:02.965Z,412.00
2023-04-16T04:03:03.077Z,409.00
2023-04-16T04:04:03.018Z,407.00
2023-04-16T04:05:02.981Z,408.00
2023-04-16T04:06:02.952Z,409.00
2023-04-16T04:07:02.940Z,410.00
2023-04-16T04:08:02.986Z,410.00
2023-04-16T04:09:03.050Z,413.00
2023-04-16T04:10:03.080Z,412.00
2023-04-16T04:11:03.045Z,412.00
2023-04-16T04:12:03.046Z,411.00
2023-04-16T04:13:03.099Z,410.00
2023-04-16T04:14:03.103Z,408.00
2023-04-16T04:15:03.204Z,408.00
2023-04-16T04:16:03.152Z,408.00
2023-04-16T04:17:03.123Z,408.00
2023-04-16T04:18:03.174Z,408.00
2023-04-16T04:19:03.155Z,408.00
2023-04-16T04:20:03.226Z,410.00
2023-04-16T04:21:03.224Z,411.00
2023-04-16T04:22:03.235Z,412.00
2023-04-16T04:23:03.230Z,412.00
2023-04-16T04:24:03.289Z,413.00
2023-04-16T04:25:03.279Z,415.00
2023-04-16T04:26:03.312Z,416.00
2023-04-16T04:27:03.358Z,416.00
2023-04-16T04:28:03.295Z,415.00
2023-04-16T04:29:03.309Z,417.00
2023-04-16T04:30:03.415Z,416.00
2023-04-16T04:31:03.356Z,415.00
2023-04-16T04:32:03.433Z,416.00
2023-04-16T04:33:03.453Z,415.00
2023-04-16T04:34:03.415Z,416.00
2023-04-16T04:35:03.444Z,415.00
2023-04-16T04:36:03.475Z,413.00
2023-04-16T04:37:03.532Z,412.00
2023-04-16T04:38:03.539Z,411.00
2023-04-16T04:39:03.535Z,410.00
2023-04-16T04:40:03.583Z,410.00
2023-04-16T04:41:03.623Z,411.00
2023-04-16T04:42:03.571Z,409.00
2023-04-16T04:43:03.558Z,408.00
2023-04-16T04:44:03.562Z,408.00
2023-04-16T04:45:03.582Z,408.00
2023-04-16T04:46:03.665Z,409.00
2023-04-16T04:47:03.591Z,410.00
2023-04-16T04:48:03.589Z,412.00
2023-04-16T04:49:03.620Z,411.00
2023-04-16T04:50:03.597Z,409.00
2023-04-16T04:51:04.987Z,405.00
2023-04-16T04:52:03.715Z,407.00
2023-04-16T04:53:03.626Z,407.00
2023-04-16T04:54:03.605Z,408.00
2023-04-16T04:55:03.658Z,408.00
2023-04-16T04:56:12.286Z,405.00
2023-04-16T04:57:04.632Z,404.00
2023-04-16T04:58:03.606Z,405.00
2023-04-16T04:59:03.644Z,407.00
2023-04-16T05:00:03.597Z,408.00
2023-04-16T05:01:03.672Z,407.00
2023-04-16T05:02:03.670Z,406.00
2023-04-16T05:03:03.684Z,406.00
2023-04-16T05:04:03.650Z,406.00
2023-04-16T05:05:03.634Z,405.00
2023-04-16T05:06:03.547Z,404.00
2023-04-16T05:07:03.571Z,406.00
2023-04-16T05:08:03.542Z,406.00
2023-04-16T05:09:03.546Z,407.00
2023-04-16T05:10:03.515Z,406.00
2023-04-16T05:11:03.586Z,404.00
2023-04-16T05:12:03.518Z,402.00
2023-04-16T05:13:03.513Z,404.00
2023-04-16T05:14:03.511Z,403.00
2023-04-16T05:15:03.556Z,403.00
2023-04-16T05:16:03.491Z,403.00
2023-04-16T05:17:03.609Z,401.00
2023-04-16T05:18:03.545Z,402.00
2023-04-16T05:19:03.529Z,402.00
2023-04-16T05:20:03.455Z,403.00
2023-04-16T05:21:03.426Z,403.00
2023-04-16T05:22:03.473Z,403.00
2023-04-16T05:23:03.424Z,404.00
2023-04-16T05:24:03.431Z,403.00
2023-04-16T05:25:03.453Z,406.00
2023-04-16T05:26:03.380Z,407.00
2023-04-16T05:27:03.396Z,407.00
2023-04-16T05:28:03.373Z,406.00
2023-04-16T05:29:03.406Z,407.00
2023-04-16T05:30:03.438Z,405.00
2023-04-16T05:31:03.433Z,405.00
2023-04-16T05:32:03.371Z,405.00
2023-04-16T05:33:03.365Z,404.00
2023-04-16T05:34:03.381Z,405.00
2023-04-16T05:35:03.346Z,404.00
2023-04-16T05:36:03.361Z,403.00
2023-04-16T05:37:03.368Z,403.00
2023-04-16T05:38:03.335Z,404.00
2023-04-16T05:39:03.378Z,404.00
2023-04-16T05:40:03.354Z,404.00
2023-04-16T05:41:03.333Z,405.00
2023-04-16T05:42:03.436Z,406.00
2023-04-16T05:43:03.347Z,405.00
2023-04-16T05:44:03.328Z,406.00
2023-04-16T05:45:03.375Z,404.00
2023-04-16T05:46:03.421Z,404.00
2023-04-16T05:47:03.368Z,403.00
2023-04-16T05:48:03.338Z,405.00
2023-04-16T05:49:03.452Z,406.00
2023-04-16T05:50:03.335Z,407.00
2023-04-16T05:51:03.363Z,409.00
2023-04-16T05:52:03.357Z,407.00
2023-04-16T05:53:03.336Z,404.00
2023-04-16T05:54:03.308Z,403.00
2023-04-16T05:55:03.448Z,403.00
2023-04-16T05:56:03.340Z,405.00
2023-04-16T05:57:03.352Z,405.00
2023-04-16T05:58:03.316Z,406.00
2023-04-16T05:59:03.289Z,407.00
2023-04-16T06:00:03.282Z,407.00
2023-04-16T06:01:03.320Z,407.00
2023-04-16T06:02:03.333Z,407.00
2023-04-16T06:03:03.455Z,406.00
2023-04-16T06:04:03.393Z,407.00
2023-04-16T06:05:03.324Z,408.00
2023-04-16T06:06:03.366Z,409.00
2023-04-16T06:07:03.307Z,410.00
2023-04-16T06:08:03.273Z,409.00
2023-04-16T06:09:03.238Z,409.00
2023-04-16T06:10:03.282Z,407.00
2023-04-16T06:11:03.263Z,407.00
2023-04-16T06:12:03.312Z,407.00
2023-04-16T06:13:03.346Z,407.00
2023-04-16T06:14:03.303Z,406.00
2023-04-16T06:15:03.319Z,406.00
2023-04-16T06:16:03.407Z,407.00
2023-04-16T06:17:03.369Z,406.00
2023-04-16T06:18:03.514Z,406.00
2023-04-16T06:19:03.490Z,404.00
2023-04-16T06:20:03.559Z,403.00
2023-04-16T06:21:03.586Z,402.00
2023-04-16T06:22:03.646Z,404.00
2023-04-16T06:23:03.717Z,404.00
2023-04-16T06:24:03.746Z,402.00
2023-04-16T06:25:03.805Z,401.00
2023-04-16T06:26:03.886Z,401.00
2023-04-16T06:27:03.964Z,403.00
2023-04-16T06:28:03.987Z,403.00
2023-04-16T06:29:04.082Z,403.00
2023-04-16T06:30:04.127Z,403.00
2023-04-16T06:31:04.280Z,401.00
2023-04-16T06:32:04.254Z,402.00
2023-04-16T06:33:04.347Z,403.00
2023-04-16T06:34:04.370Z,402.00
2023-04-16T06:35:04.455Z,403.00
2023-04-16T06:36:04.484Z,402.00
2023-04-16T06:37:04.565Z,403.00
2023-04-16T06:38:04.682Z,404.00
2023-04-16T06:39:04.739Z,404.00
2023-04-16T06:40:04.921Z,403.00
2023-04-16T06:41:04.787Z,406.00
2023-04-16T06:42:04.880Z,406.00
2023-04-16T06:43:04.924Z,407.00
2023-04-16T06:44:04.996Z,404.00
2023-04-16T06:45:05.028Z,404.00
2023-04-16T06:46:05.103Z,405.00
2023-04-16T06:47:05.345Z,402.00
2023-04-16T06:48:05.255Z,403.00
2023-04-16T06:49:05.219Z,400.00
2023-04-16T06:50:05.257Z,400.00
2023-04-16T06:51:05.395Z,400.00
2023-04-16T06:52:06.049Z,401.00
2023-04-16T06:53:05.463Z,401.00
2023-04-16T06:54:05.459Z,400.00
2023-04-16T06:55:05.506Z,399.00
2023-04-16T06:56:05.561Z,399.00
2023-04-16T06:57:05.601Z,400.00
2023-04-16T06:58:05.631Z,401.00
2023-04-16T06:59:05.702Z,402.00
2023-04-16T07:00:05.720Z,401.00
2023-04-16T07:01:05.789Z,402.00
2023-04-16T07:02:05.902Z,403.00
2023-04-16T07:03:05.926Z,403.00
2023-04-16T07:04:05.953Z,401.00
2023-04-16T07:05:05.943Z,401.00
2023-04-16T07:06:05.987Z,401.00
2023-04-16T07:07:05.998Z,401.00
2023-04-16T07:08:06.021Z,400.00
2023-04-16T07:09:06.082Z,403.00
2023-04-16T07:10:06.081Z,403.00
2023-04-16T07:11:06.097Z,400.00
2023-04-16T07:12:06.133Z,399.00
2023-04-16T07:13:06.169Z,399.00
2023-04-16T07:14:06.219Z,398.00
2023-04-16T07:15:06.176Z,398.00
2023-04-16T07:16:06.255Z,400.00
2023-04-16T07:17:06.239Z,400.00
2023-04-16T07:18:06.350Z,401.00
2023-04-16T07:19:06.283Z,402.00
2023-04-16T07:20:06.359Z,402.00
2023-04-16T07:21:06.365Z,402.00
2023-04-16T07:22:06.368Z,402.00
2023-04-16T07:23:06.370Z,403.00
2023-04-16T07:24:06.402Z,404.00
2023-04-16T07:25:06.447Z,405.00
2023-04-16T07:26:06.409Z,407.00
2023-04-16T07:27:06.419Z,407.00
2023-04-16T07:28:06.449Z,408.00
2023-04-16T07:29:06.467Z,409.00
2023-04-16T07:30:06.467Z,407.00
2023-04-16T07:31:06.484Z,406.00
2023-04-16T07:32:06.532Z,408.00
2023-04-16T07:33:06.504Z,406.00
2023-04-16T07:34:06.483Z,404.00
2023-04-16T07:35:06.561Z,404.00
2023-04-16T07:36:06.567Z,402.00
2023-04-16T07:37:06.534Z,404.00
2023-04-16T07:38:06.626Z,403.00
2023-04-16T07:39:06.550Z,402.00
2023-04-16T07:40:06.615Z,401.00
2023-04-16T07:41:06.613Z,398.00
2023-04-16T07:42:06.612Z,399.00
2023-04-16T07:43:06.623Z,399.00
2023-04-16T07:44:06.620Z,398.00
2023-04-16T07:45:06.624Z,398.00
2023-04-16T07:46:06.700Z,400.00
2023-04-16T07:47:06.760Z,401.00
2023-04-16T07:48:06.670Z,403.00
2023-04-16T07:49:06.654Z,403.00
2023-04-16T07:50:06.661Z,404.00
2023-04-16T07:51:06.664Z,403.00
2023-04-16T07:52:06.673Z,402.00
2023-04-16T07:53:06.680Z,401.00
2023-04-16T07:54:06.649Z,401.00
2023-04-16T07:55:06.702Z,400.00
2023-04-16T07:56:06.702Z,399.00
2023-04-16T07:57:06.740Z,400.00
2023-04-16T07:58:06.656Z,402.00
2023-04-16T07:59:21.214Z,404.00
2023-04-16T08:00:07.653Z,408.00
2023-04-16T08:01:06.656Z,408.00
2023-04-16T08:02:06.802Z,409.00
2023-04-16T08:03:06.959Z,407.00
2023-04-16T08:04:06.703Z,405.00
2023-04-16T08:05:06.860Z,404.00
2023-04-16T08:06:06.595Z,405.00
2023-04-16T08:07:06.696Z,407.00
2023-04-16T08:08:06.613Z,406.00
2023-04-16T08:09:06.605Z,405.00
2023-04-16T08:10:06.550Z,404.00
2023-04-16T08:11:06.604Z,402.00
2023-04-16T08:12:06.575Z,402.00
2023-04-16T08:13:06.548Z,403.00
2023-04-16T08:14:06.550Z,406.00
2023-04-16T08:15:06.558Z,405.00
2023-04-16T08:16:06.565Z,405.00
2023-04-16T08:17:06.533Z,407.00
2023-04-16T08:18:06.568Z,407.00
2023-04-16T08:19:06.515Z,406.00
2023-04-16T08:20:06.562Z,407.00
2023-04-16T08:21:06.505Z,408.00
2023-04-16T08:22:06.509Z,408.00
2023-04-16T08:23:06.583Z,408.00
2023-04-16T08:24:06.606Z,407.00
2023-04-16T08:25:06.648Z,405.00
2023-04-16T08:26:06.745Z,406.00
2023-04-16T08:27:17.759Z,407.00
2023-04-16T08:28:07.792Z,406.00
2023-04-16T08:29:06.760Z,408.00
2023-04-16T08:30:06.777Z,407.00
2023-04-16T08:31:06.837Z,406.00
2023-04-16T08:32:06.737Z,408.00
2023-04-16T08:33:06.737Z,407.00
2023-04-16T08:34:06.755Z,404.00
2023-04-16T08:35:06.694Z,405.00
2023-04-16T08:36:06.764Z,405.00
2023-04-16T08:37:06.916Z,403.00
2023-04-16T08:38:06.883Z,401.00
2023-04-16T08:39:06.937Z,401.00
2023-04-16T08:40:07.006Z,401.00
2023-04-16T08:41:07.065Z,403.00
2023-04-16T08:42:07.051Z,404.00
2023-04-16T08:43:07.258Z,405.00
2023-04-16T08:44:07.187Z,405.00
2023-04-16T08:45:07.238Z,405.00
2023-04-16T08:46:07.338Z,406.00
2023-04-16T08:47:07.303Z,406.00
2023-04-16T08:48:07.359Z,406.00
2023-04-16T08:49:07.508Z,407.00
2023-04-16T08:50:07.406Z,406.00
2023-04-16T08:51:07.491Z,405.00
2023-04-16T08:52:07.522Z,405.00
2023-04-16T08:53:07.541Z,406.00
2023-04-16T08:54:07.608Z,406.00
2023-04-16T08:55:07.666Z,403.00
2023-04-16T08:56:07.646Z,405.00
2023-04-16T08:57:07.712Z,405.00
2023-04-16T08:58:07.732Z,403.00
2023-04-16T08:59:07.934Z,401.00
2023-04-16T09:00:07.847Z,401.00
2023-04-16T09:01:07.907Z,403.00
2023-04-16T09:02:07.914Z,405.00
2023-04-16T09:03:08.089Z,405.00
2023-04-16T09:04:08.111Z,405.00
2023-04-16T09:05:08.031Z,405.00
2023-04-16T09:06:08.043Z,405.00
2023-04-16T09:07:08.031Z,404.00
2023-04-16T09:08:08.113Z,408.00
2023-04-16T09:09:08.467Z,408.00
2023-04-16T09:10:08.182Z,407.00
2023-04-16T09:11:08.174Z,408.00
2023-04-16T09:12:08.237Z,407.00
2023-04-16T09:13:08.231Z,405.00
2023-04-16T09:14:08.253Z,404.00
2023-04-16T09:15:08.288Z,405.00
2023-04-16T09:16:08.346Z,407.00
2023-04-16T09:17:08.315Z,407.00
2023-04-16T09:18:08.315Z,406.00
2023-04-16T09:19:08.542Z,408.00
2023-04-16T09:20:08.381Z,410.00
2023-04-16T09:21:08.415Z,411.00
2023-04-16T09:22:08.408Z,412.00
2023-04-16T09:23:08.402Z,411.00
2023-04-16T09:24:08.464Z,409.00
2023-04-16T09:25:08.464Z,408.00
2023-04-16T09:26:08.470Z,411.00
2023-04-16T09:27:08.540Z,412.00
2023-04-16T09:28:08.667Z,412.00
2023-04-16T09:29:08.759Z,411.00
2023-04-16T09:30:08.536Z,411.00
2023-04-16T09:31:08.613Z,408.00
2023-04-16T09:32:08.741Z,409.00
2023-04-16T09:33:08.620Z,411.00
2023-04-16T09:34:08.605Z,413.00
2023-04-16T09:35:08.640Z,412.00
2023-04-16T09:36:08.633Z,413.00
2023-04-16T09:37:08.649Z,412.00
2023-04-16T09:38:08.787Z,409.00
2023-04-16T09:39:08.820Z,406.00
2023-04-16T09:40:08.782Z,406.00
2023-04-16T09:41:08.764Z,406.00
2023-04-16T09:42:08.756Z,406.00
2023-04-16T09:43:08.766Z,407.00
2023-04-16T09:44:08.720Z,408.00
2023-04-16T09:45:08.728Z,408.00
2023-04-16T09:46:08.828Z,409.00
2023-04-16T09:47:08.783Z,408.00
2023-04-16T09:48:08.821Z,408.00
2023-04-16T09:49:09.169Z,406.00
2023-04-16T09:50:09.611Z,405.00
2023-04-16T09:51:08.816Z,404.00
2023-04-16T09:52:08.862Z,402.00
2023-04-16T09:53:08.832Z,402.00
2023-04-16T09:54:08.848Z,400.00
2023-04-16T09:55:08.947Z,401.00
2023-04-16T09:56:08.895Z,402.00
2023-04-16T09:57:08.872Z,397.00
2023-04-16T09:58:08.923Z,397.00
2023-04-16T09:59:09.152Z,402.00
2023-04-16T10:00:08.951Z,401.00
2023-04-16T10:01:08.931Z,404.00
2023-04-16T10:02:15.298Z,406.00
2023-04-16T10:03:09.988Z,404.00
2023-04-16T10:04:09.037Z,403.00
2023-04-16T10:05:08.948Z,403.00
2023-04-16T10:06:08.932Z,401.00
2023-04-16T10:07:08.938Z,401.00
2023-04-16T10:08:08.890Z,402.00
2023-04-16T10:09:09.121Z,399.00
2023-04-16T10:10:08.873Z,399.00
2023-04-16T10:11:08.840Z,402.00
2023-04-16T10:12:08.867Z,404.00
2023-04-16T10:13:08.854Z,405.00
2023-04-16T10:14:08.869Z,404.00
2023-04-16T10:15:08.865Z,404.00
2023-04-16T10:16:08.819Z,403.00
2023-04-16T10:17:08.933Z,402.00
2023-04-16T10:18:08.842Z,403.00
2023-04-16T10:19:09.199Z,401.00
2023-04-16T10:20:08.789Z,401.00
2023-04-16T10:21:08.821Z,400.00
2023-04-16T10:22:08.815Z,399.00
2023-04-16T10:23:08.758Z,398.00
2023-04-16T10:24:08.780Z,397.00
2023-04-16T10:25:08.939Z,396.00
2023-04-16T10:26:08.906Z,397.00
2023-04-16T10:27:08.955Z,398.00
2023-04-16T10:28:09.059Z,397.00
2023-04-16T10:29:09.286Z,397.00
2023-04-16T10:30:09.112Z,395.00
2023-04-16T10:31:09.229Z,393.00
2023-04-16T10:32:09.229Z,394.00
2023-04-16T10:33:09.358Z,395.00
2023-04-16T10:34:09.348Z,397.00
2023-04-16T10:35:09.417Z,398.00
2023-04-16T10:36:09.460Z,398.00
2023-04-16T10:37:09.549Z,396.00
2023-04-16T10:38:09.575Z,396.00
2023-04-16T10:39:09.777Z,400.00
2023-04-16T10:40:09.812Z,403.00
2023-04-16T10:41:09.715Z,403.00
2023-04-16T10:42:09.837Z,405.00
2023-04-16T10:43:09.879Z,405.00
2023-04-16T10:44:10.055Z,405.00
2023-04-16T10:45:10.006Z,406.00
2023-04-16T10:46:10.123Z,405.00
2023-04-16T10:47:10.116Z,406.00
2023-04-16T10:48:10.246Z,406.00
2023-04-16T10:49:10.431Z,405.00
2023-04-16T10:50:10.340Z,405.00
2023-04-16T10:51:10.366Z,404.00
2023-04-16T10:52:10.457Z,403.00
2023-04-16T10:53:10.505Z,403.00
2023-04-16T10:54:10.572Z,405.00
2023-04-16T10:55:10.603Z,406.00
2023-04-16T10:56:10.685Z,407.00
2023-04-16T10:57:10.785Z,408.00
2023-04-16T10:58:10.808Z,407.00
2023-04-16T10:59:11.114Z,408.00
2023-04-16T11:00:10.913Z,409.00
2023-04-16T11:01:11.072Z,409.00
2023-04-16T11:02:11.119Z,410.00
2023-04-16T11:03:11.222Z,409.00
2023-04-16T11:04:11.321Z,410.00
2023-04-16T11:05:11.250Z,409.00
2023-04-16T11:06:11.292Z,408.00
2023-04-16T11:07:11.368Z,408.00
2023-04-16T11:08:11.429Z,411.00
2023-04-16T11:09:11.574Z,410.00
2023-04-16T11:10:11.526Z,409.00
2023-04-16T11:11:11.601Z,407.00
2023-04-16T11:12:11.641Z,406.00
2023-04-16T11:13:11.813Z,407.00
2023-04-16T11:14:11.775Z,406.00
2023-04-16T11:15:11.893Z,407.00
2023-04-16T11:16:11.922Z,407.00
2023-04-16T11:17:11.977Z,408.00
2023-04-16T11:18:12.056Z,407.00
2023-04-16T11:19:12.210Z,410.00
2023-04-16T11:20:19.413Z,409.00
2023-04-16T11:21:13.144Z,405.00
2023-04-16T11:22:12.116Z,404.00
2023-04-16T11:23:12.128Z,407.00
2023-04-16T11:24:12.097Z,409.00
2023-04-16T11:25:12.103Z,407.00
2023-04-16T11:26:12.109Z,407.00
2023-04-16T11:27:12.124Z,407.00
2023-04-16T11:28:12.136Z,407.00
2023-04-16T11:29:12.122Z,406.00
2023-04-16T11:30:12.155Z,409.00
2023-04-16T11:31:12.217Z,410.00
2023-04-16T11:32:12.256Z,409.00
2023-04-16T11:33:12.308Z,407.00
2023-04-16T11:34:12.370Z,407.00
2023-04-16T11:35:12.438Z,405.00
2023-04-16T11:36:12.498Z,405.00
2023-04-16T11:37:12.532Z,404.00
2023-04-16T11:38:12.605Z,403.00
2023-04-16T11:39:12.903Z,402.00
2023-04-16T11:40:12.717Z,401.00
2023-04-16T11:41:12.734Z,402.00
2023-04-16T11:42:12.892Z,400.00
2023-04-16T11:43:12.893Z,402.00
2023-04-16T11:44:12.952Z,402.00
2023-04-16T11:45:12.993Z,399.00
2023-04-16T11:46:24.565Z,398.00
2023-04-16T11:47:14.107Z,398.00
2023-04-16T11:48:13.069Z,399.00
2023-04-16T11:49:13.252Z,400.00
2023-04-16T11:50:13.062Z,402.00
2023-04-16T11:51:13.042Z,400.00
2023-04-16T11:52:12.993Z,402.00
2023-04-16T11:53:12.973Z,402.00
2023-04-16T11:54:12.966Z,404.00
2023-04-16T11:55:13.033Z,403.00
2023-04-16T11:56:13.087Z,405.00
2023-04-16T11:57:13.119Z,400.00
2023-04-16T11:58:13.197Z,401.00
2023-04-16T11:59:13.525Z,402.00
2023-04-16T12:00:13.354Z,401.00
2023-04-16T12:01:13.423Z,400.00
2023-04-16T12:02:13.497Z,403.00
2023-04-16T12:03:13.745Z,401.00
2023-04-16T12:04:13.660Z,402.00
2023-04-16T12:05:13.666Z,404.00
2023-04-16T12:06:13.674Z,402.00
2023-04-16T12:07:13.729Z,400.00
2023-04-16T12:08:13.762Z,399.00
2023-04-16T12:09:13.851Z,400.00
2023-04-16T12:10:13.930Z,399.00
2023-04-16T12:11:14.009Z,398.00
2023-04-16T12:12:14.031Z,397.00
2023-04-16T12:13:14.132Z,398.00
2023-04-16T12:14:14.117Z,397.00
2023-04-16T12:15:14.221Z,395.00
2023-04-16T12:16:14.311Z,395.00
2023-04-16T12:17:14.324Z,394.00
2023-04-16T12:18:14.413Z,395.00
2023-04-16T12:19:14.464Z,397.00
2023-04-16T12:20:14.521Z,398.00
2023-04-16T12:21:14.655Z,400.00
2023-04-16T12:22:14.644Z,402.00
2023-04-16T12:23:14.699Z,399.00
2023-04-16T12:24:14.782Z,400.00
2023-04-16T12:25:14.800Z,399.00
2023-04-16T12:26:14.872Z,398.00
2023-04-16T12:27:14.884Z,400.00
2023-04-16T12:28:14.990Z,400.00